Time;durP1;ratioP1;P1;durP2;ratioP2;P2;SDS_P1;SDS_P2;PMS_P1;PMS_P2;Temp;Humidity;BMP_temperature;BMP_pressure;BME280_temperature;BME280_humidity;BME280_pressure;Samples;Min_cycle;Max_cycle;Signal;HPM_P1;HPM_P2
2023/01/01 00:01:25;;;;;;;49.92;24.20;;;;;;;;;;7391991;19;20001;-67
2023/01/01 00:03:52;;;;;;;43.83;22.45;;;;;;;;;;7391140;19;20022;-67
2023/01/01 00:06:18;;;;;;;32.40;18.90;;;;;;;;;;7390500;19;20490;-68
2023/01/01 00:08:43;;;;;;;30.90;18.30;;;;;;;;;;7390967;19;19986;-69
2023/01/01 00:11:09;;;;;;;28.83;18.40;;;;;;;;;;7391986;19;19994;-66
2023/01/01 00:13:37;;;;;;;37.20;19.50;;;;;;;;;;7390222;19;20002;-68
2023/01/01 00:16:13;;;;;;;69.47;37.50;;;;;;;;;;7388745;19;20026;-68
2023/01/01 00:18:39;;;;;;;34.90;21.13;;;;;;;;;;7391833;19;19990;-67
2023/01/01 00:21:12;;;;;;;34.53;19.95;;;;;;;;;;7391799;19;20373;-67
2023/01/01 00:23:37;;;;;;;35.38;19.75;;;;;;;;;;7389801;19;20028;-66
2023/01/01 00:26:14;;;;;;;36.00;19.40;;;;;;;;;;7390601;19;19994;-66
2023/01/01 00:28:40;;;;;;;46.33;26.75;;;;;;;;;;7391452;19;19998;-67
2023/01/01 00:31:10;;;;;;;79.00;39.40;;;;;;;;;;7391393;19;19994;-67
2023/01/01 00:33:36;;;;;;;70.17;34.23;;;;;;;;;;7389533;19;20456;-69
2023/01/01 00:36:13;;;;;;;93.22;44.78;;;;;;;;;;7391139;19;20015;-67
2023/01/01 00:38:39;;;;;;;63.65;28.70;;;;;;;;;;7391212;19;19998;-66
2023/01/01 00:41:05;;;;;;;63.63;29.02;;;;;;;;;;7390911;19;20001;-67
2023/01/01 00:43:30;;;;;;;46.22;24.52;;;;;;;;;;7389664;19;20347;-67
2023/01/01 00:45:55;;;;;;;32.65;17.00;;;;;;;;;;7389490;19;19998;-67
2023/01/01 00:48:22;;;;;;;31.92;18.38;;;;;;;;;;7390576;19;19998;-66
2023/01/01 00:50:48;;;;;;;28.88;16.88;;;;;;;;;;7390399;19;19999;-67
2023/01/01 00:53:14;;;;;;;29.33;17.10;;;;;;;;;;7392231;19;20381;-68
2023/01/01 00:55:39;;;;;;;30.55;15.15;;;;;;;;;;7389797;19;19994;-67
2023/01/01 00:58:05;;;;;;;23.05;12.70;;;;;;;;;;7390644;19;20326;-68
2023/01/01 01:00:30;;;;;;;21.23;11.07;;;;;;;;;;7390923;19;19999;-66
2023/01/01 01:02:55;;;;;;;22.73;11.43;;;;;;;;;;7386909;19;20121;-69
2023/01/01 01:05:21;;;;;;;20.40;9.68;;;;;;;;;;7389072;19;20070;-69
2023/01/01 01:07:46;;;;;;;14.60;8.57;;;;;;;;;;7390672;19;19995;-68
2023/01/01 01:10:12;;;;;;;16.05;8.98;;;;;;;;;;7390284;19;19999;-69
2023/01/01 01:12:37;;;;;;;19.20;9.00;;;;;;;;;;7387374;19;20534;-71
2023/01/01 01:15:04;;;;;;;23.70;9.35;;;;;;;;;;7389323;19;20091;-67
2023/01/01 01:17:29;;;;;;;16.95;8.57;;;;;;;;;;7390265;19;19999;-67
2023/01/01 01:19:55;;;;;;;16.48;8.73;;;;;;;;;;7390335;19;20466;-66
2023/01/01 01:22:20;;;;;;;12.82;7.05;;;;;;;;;;7394249;19;19995;-69
2023/01/01 01:24:46;;;;;;;15.23;9.05;;;;;;;;;;7395587;19;20072;-66
2023/01/01 01:27:11;;;;;;;13.88;7.68;;;;;;;;;;7401440;19;19986;-67
2023/01/01 01:29:36;;;;;;;15.45;8.07;;;;;;;;;;7395510;19;19991;-67
2023/01/01 01:32:02;;;;;;;17.33;7.95;;;;;;;;;;7396899;19;20009;-67
2023/01/01 01:34:27;;;;;;;13.60;7.28;;;;;;;;;;7398878;19;20010;-66
2023/01/01 01:36:52;;;;;;;15.30;8.15;;;;;;;;;;7397613;19;19994;-67
2023/01/01 01:39:18;;;;;;;15.52;7.93;;;;;;;;;;7397245;19;20460;-68
2023/01/01 01:41:44;;;;;;;13.77;7.80;;;;;;;;;;7394427;19;20003;-67
2023/01/01 01:44:47;;;;;;;13.43;7.35;;;;;;;;;;7395677;19;19986;-67
2023/01/01 01:47:29;;;;;;;14.90;7.65;;;;;;;;;;7396509;19;19999;-68
2023/01/01 01:50:09;;;;;;;12.68;6.78;;;;;;;;;;7396632;19;20003;-68
2023/01/01 01:52:38;;;;;;;15.90;7.40;;;;;;;;;;7394854;19;19995;-68
2023/01/01 01:55:06;;;;;;;11.43;5.50;;;;;;;;;;7394711;19;20339;-67
2023/01/01 01:57:32;;;;;;;10.50;5.65;;;;;;;;;;7395910;19;20389;-66
2023/01/01 01:59:59;;;;;;;12.65;5.95;;;;;;;;;;7396213;19;20015;-68
2023/01/01 02:02:39;;;;;;;9.52;5.20;;;;;;;;;;7392997;19;20062;-68
2023/01/01 02:05:05;;;;;;;9.82;5.35;;;;;;;;;;7393049;19;20011;-68
2023/01/01 02:07:32;;;;;;;9.48;5.10;;;;;;;;;;7394434;19;20077;-69
2023/01/01 02:09:58;;;;;;;8.48;4.50;;;;;;;;;;7394600;19;20078;-67
2023/01/01 02:12:25;;;;;;;10.10;4.68;;;;;;;;;;7393568;19;20007;-67
2023/01/01 02:14:51;;;;;;;7.72;4.28;;;;;;;;;;7394314;19;19994;-67
2023/01/01 02:17:27;;;;;;;11.32;4.93;;;;;;;;;;7393866;19;20005;-67
2023/01/01 02:20:26;;;;;;;9.95;4.75;;;;;;;;;;7395164;19;20005;-68
2023/01/01 02:23:08;;;;;;;9.55;4.57;;;;;;;;;;7392047;19;20007;-68
2023/01/01 02:25:48;;;;;;;10.25;4.32;;;;;;;;;;7394958;19;20425;-68
2023/01/01 02:28:44;;;;;;;11.27;4.88;;;;;;;;;;7395355;19;20023;-68
2023/01/01 02:31:15;;;;;;;10.60;5.18;;;;;;;;;;7396285;19;20032;-68
2023/01/01 02:33:41;;;;;;;;;;;;;;;;;;7393979;19;20007;-68
2023/01/01 02:36:08;;;;;;;10.55;5.00;;;;;;;;;;7393344;19;20341;-68
2023/01/01 02:38:40;;;;;;;11.75;5.90;;;;;;;;;;7394922;19;20058;-68
2023/01/01 02:41:08;;;;;;;10.32;5.68;;;;;;;;;;7393442;19;19998;-66
2023/01/01 02:43:33;;;;;;;11.40;5.93;;;;;;;;;;7393472;19;19994;-68
2023/01/01 02:46:04;;;;;;;10.85;5.78;;;;;;;;;;7397989;19;20006;-69
2023/01/01 02:48:38;;;;;;;;;;;;;;;;;;7393992;19;19998;-69
2023/01/01 02:51:13;;;;;;;10.50;6.60;;;;;;;;;;7394866;19;19922;-69
2023/01/01 02:53:50;;;;;;;15.85;6.20;;;;;;;;;;7393340;19;19994;-69
2023/01/01 02:56:22;;;;;;;13.52;6.93;;;;;;;;;;7391632;19;19999;-69
2023/01/01 03:01:53;;;;;;;14.60;6.47;;;;;;;;;;7393271;19;20006;-69
2023/01/01 03:04:35;;;;;;;13.57;6.32;;;;;;;;;;7392178;19;20010;-69
2023/01/01 03:07:13;;;;;;;13.00;6.35;;;;;;;;;;7392257;19;20070;-68
2023/01/01 03:09:50;;;;;;;12.48;6.35;;;;;;;;;;7393952;19;20004;-69
2023/01/01 03:12:39;;;;;;;14.18;5.90;;;;;;;;;;7394309;19;20005;-67
2023/01/01 03:15:13;;;;;;;11.32;6.18;;;;;;;;;;7393751;19;19999;-69
2023/01/01 03:17:48;;;;;;;12.30;5.68;;;;;;;;;;7393274;19;20482;-69
2023/01/01 03:20:18;;;;;;;12.23;5.25;;;;;;;;;;7393500;19;20002;-70
2023/01/01 03:22:47;;;;;;;9.60;5.18;;;;;;;;;;7390519;19;20002;-69
2023/01/01 03:25:19;;;;;;;10.88;5.45;;;;;;;;;;7392793;19;19998;-68
2023/01/01 03:27:44;;;;;;;11.95;6.20;;;;;;;;;;7393520;19;19994;-69
2023/01/01 03:30:12;;;;;;;9.88;4.75;;;;;;;;;;7397226;19;20005;-69
2023/01/01 03:33:02;;;;;;;9.05;4.07;;;;;;;;;;7391729;19;20102;-69
2023/01/01 03:35:33;;;;;;;8.75;4.47;;;;;;;;;;7392525;19;19998;-69
2023/01/01 03:38:01;;;;;;;11.35;4.28;;;;;;;;;;7393090;19;20010;-69
2023/01/01 03:40:28;;;;;;;9.13;3.55;;;;;;;;;;7392755;19;20003;-69
2023/01/01 03:43:02;;;;;;;8.93;3.20;;;;;;;;;;7387442;19;19998;-69
2023/01/01 03:45:36;;;;;;;6.35;2.75;;;;;;;;;;7391041;19;20038;-69
2023/01/01 03:48:04;;;;;;;6.38;2.97;;;;;;;;;;7392795;19;20368;-69
2023/01/01 03:50:43;;;;;;;6.15;2.83;;;;;;;;;;7392564;19;19999;-69
2023/01/01 03:53:19;;;;;;;5.20;2.88;;;;;;;;;;7390815;19;19991;-69
2023/01/01 03:55:51;;;;;;;8.07;3.20;;;;;;;;;;7391940;19;20003;-69
2023/01/01 03:58:34;;;;;;;8.18;3.58;;;;;;;;;;7390642;19;20026;-69
2023/01/01 04:01:13;;;;;;;7.35;2.83;;;;;;;;;;7392441;19;20134;-67
2023/01/01 04:03:40;;;;;;;9.88;3.00;;;;;;;;;;7388610;19;20009;-69
2023/01/01 04:06:06;;;;;;;8.73;3.30;;;;;;;;;;7389335;19;20002;-67
2023/01/01 04:08:33;;;;;;;6.07;2.70;;;;;;;;;;7392455;19;20028;-68
2023/01/01 04:12:00;;;;;;;6.93;3.13;;;;;;;;;;7392689;19;20011;-69
2023/01/01 04:13:47;;;;;;;8.38;3.13;;;;;;;;;;7388674;19;19994;-69
2023/01/01 04:16:13;;;;;;;7.20;3.30;;;;;;;;;;7390026;19;20006;-68
2023/01/01 04:18:38;;;;;;;7.97;3.10;;;;;;;;;;7391486;19;19991;-69
2023/01/01 04:21:04;;;;;;;6.07;3.00;;;;;;;;;;7390375;19;19994;-69
2023/01/01 04:23:29;;;;;;;5.72;3.20;;;;;;;;;;7390176;19;20325;-69
2023/01/01 04:25:54;;;;;;;8.65;3.30;;;;;;;;;;7390621;19;20470;-68
2023/01/01 04:28:20;;;;;;;5.97;2.90;;;;;;;;;;7391302;19;20023;-68
2023/01/01 04:30:45;;;;;;;6.90;3.55;;;;;;;;;;7390837;19;19990;-68
2023/01/01 04:33:10;;;;;;;5.80;2.97;;;;;;;;;;7388362;19;19994;-68
2023/01/01 04:35:35;;;;;;;6.95;3.25;;;;;;;;;;7390664;19;20058;-69
2023/01/01 04:38:02;;;;;;;9.98;3.47;;;;;;;;;;7389373;19;20467;-68
2023/01/01 04:40:27;;;;;;;6.60;3.38;;;;;;;;;;7392234;19;19991;-69
2023/01/01 04:42:53;;;;;;;7.93;3.53;;;;;;;;;;7390179;19;20046;-68
2023/01/01 04:45:18;;;;;;;7.63;3.78;;;;;;;;;;7388821;19;20007;-68
2023/01/01 04:47:44;;;;;;;8.45;3.50;;;;;;;;;;7390875;19;20002;-68
2023/01/01 04:50:09;;;;;;;7.72;3.25;;;;;;;;;;7389333;19;20348;-69
2023/01/01 04:52:35;;;;;;;7.65;3.50;;;;;;;;;;7389082;19;19999;-68
2023/01/01 04:55:00;;;;;;;7.88;3.38;;;;;;;;;;7393043;19;20012;-68
2023/01/01 04:57:28;;;;;;;6.20;3.33;;;;;;;;;;7398384;19;20463;-68
2023/01/01 04:59:53;;;;;;;7.80;3.75;;;;;;;;;;7398030;19;20002;-69
2023/01/01 05:02:19;;;;;;;7.97;3.60;;;;;;;;;;7396416;19;20372;-68
2023/01/01 05:04:44;;;;;;;9.63;4.07;;;;;;;;;;7396925;19;19991;-68
2023/01/01 05:07:09;;;;;;;7.68;3.35;;;;;;;;;;7398209;19;20504;-68
2023/01/01 05:09:35;;;;;;;8.57;3.85;;;;;;;;;;7397728;19;19998;-68
2023/01/01 05:12:00;;;;;;;8.60;4.28;;;;;;;;;;7397535;19;20054;-68
2023/01/01 05:14:25;;;;;;;9.55;4.00;;;;;;;;;;7394338;19;19995;-68
2023/01/01 05:16:51;;;;;;;9.52;4.00;;;;;;;;;;7394434;19;19991;-68
2023/01/01 05:19:17;;;;;;;8.95;3.80;;;;;;;;;;7397267;19;19999;-68
2023/01/01 05:21:44;;;;;;;7.05;3.35;;;;;;;;;;7396760;19;20007;-68
2023/01/01 05:24:10;;;;;;;8.85;4.38;;;;;;;;;;7397213;19;20015;-68
2023/01/01 05:26:41;;;;;;;8.07;3.70;;;;;;;;;;7394824;19;19994;-68
2023/01/01 05:29:06;;;;;;;7.28;3.45;;;;;;;;;;7397168;19;20058;-68
2023/01/01 05:31:34;;;;;;;8.75;3.70;;;;;;;;;;7397287;19;20025;-68
2023/01/01 05:34:01;;;;;;;6.10;3.17;;;;;;;;;;7394373;19;20351;-68
2023/01/01 05:36:32;;;;;;;8.00;3.67;;;;;;;;;;7399106;19;20431;-68
2023/01/01 05:38:57;;;;;;;12.35;4.88;;;;;;;;;;7397197;19;20488;-68
2023/01/01 05:41:23;;;;;;;10.63;5.43;;;;;;;;;;7396492;19;20010;-68
2023/01/01 05:43:49;;;;;;;15.45;6.43;;;;;;;;;;7395174;19;20493;-68
2023/01/01 05:46:20;;;;;;;15.80;7.40;;;;;;;;;;7394755;19;20050;-68
2023/01/01 05:48:46;;;;;;;20.17;8.20;;;;;;;;;;7396510;19;20086;-68
2023/01/01 05:51:13;;;;;;;19.30;9.45;;;;;;;;;;7396374;19;20494;-68
2023/01/01 05:53:39;;;;;;;24.02;12.70;;;;;;;;;;7395278;19;19990;-68
2023/01/01 05:56:06;;;;;;;24.15;11.27;;;;;;;;;;7393283;19;20459;-68
2023/01/01 05:58:32;;;;;;;25.15;13.15;;;;;;;;;;7395575;19;20349;-68
2023/01/01 06:01:14;;;;;;;34.88;18.40;;;;;;;;;;7398193;19;20392;-68
2023/01/01 06:03:41;;;;;;;30.90;16.08;;;;;;;;;;7394687;19;20001;-68
2023/01/01 06:06:10;;;;;;;26.63;14.90;;;;;;;;;;7394542;19;20372;-68
2023/01/01 06:08:35;;;;;;;25.73;13.38;;;;;;;;;;7396320;19;20396;-68
2023/01/01 06:11:03;;;;;;;25.08;12.77;;;;;;;;;;7395392;19;20015;-69
2023/01/01 06:13:29;;;;;;;22.27;11.65;;;;;;;;;;7393924;19;20452;-71
2023/01/01 06:15:58;;;;;;;23.15;10.32;;;;;;;;;;7393122;19;20097;-68
2023/01/01 06:18:25;;;;;;;27.75;14.35;;;;;;;;;;7395818;19;20333;-68
2023/01/01 06:20:50;;;;;;;31.55;14.63;;;;;;;;;;7396062;19;20002;-68
2023/01/01 06:23:16;;;;;;;29.52;16.65;;;;;;;;;;7391906;19;19995;-68
2023/01/01 06:25:42;;;;;;;26.33;14.88;;;;;;;;;;7394554;19;20001;-69
2023/01/01 06:28:07;;;;;;;27.02;12.25;;;;;;;;;;7395687;19;20003;-68
2023/01/01 06:30:33;;;;;;;20.20;9.40;;;;;;;;;;7395701;19;19991;-68
2023/01/01 06:32:59;;;;;;;15.85;8.23;;;;;;;;;;7393906;19;19997;-68
2023/01/01 06:35:24;;;;;;;18.90;7.78;;;;;;;;;;7394635;19;20002;-68
2023/01/01 06:37:50;;;;;;;18.42;6.80;;;;;;;;;;7395192;19;19998;-68
2023/01/01 06:40:15;;;;;;;22.00;8.05;;;;;;;;;;7395221;19;20010;-68
2023/01/01 06:42:40;;;;;;;19.50;7.50;;;;;;;;;;7392077;19;20015;-68
2023/01/01 06:45:06;;;;;;;16.40;7.78;;;;;;;;;;7398235;19;20027;-68
2023/01/01 06:47:34;;;;;;;18.83;8.57;;;;;;;;;;7393619;19;19999;-68
2023/01/01 06:49:59;;;;;;;16.27;8.00;;;;;;;;;;7395199;19;19990;-68
2023/01/01 06:52:24;;;;;;;19.63;8.00;;;;;;;;;;7394335;19;19998;-68
2023/01/01 06:54:50;;;;;;;19.45;7.57;;;;;;;;;;7393874;19;20452;-68
2023/01/01 06:57:15;;;;;;;15.05;7.65;;;;;;;;;;7393013;19;19995;-68
2023/01/01 06:59:40;;;;;;;13.25;6.55;;;;;;;;;;7394305;19;20015;-68
2023/01/01 07:02:09;;;;;;;14.32;6.97;;;;;;;;;;7393819;19;19998;-68
2023/01/01 07:04:34;;;;;;;14.13;6.85;;;;;;;;;;7391469;19;19999;-68
2023/01/01 07:07:00;;;;;;;15.32;7.20;;;;;;;;;;7392570;19;20079;-68
2023/01/01 07:09:25;;;;;;;12.98;6.55;;;;;;;;;;7393559;19;20001;-68
2023/01/01 07:11:50;;;;;;;15.90;6.15;;;;;;;;;;7394286;19;19994;-68
2023/01/01 07:14:16;;;;;;;10.82;5.50;;;;;;;;;;7392721;19;20002;-68
2023/01/01 07:16:41;;;;;;;15.15;6.65;;;;;;;;;;7392665;19;19990;-68
2023/01/01 07:19:06;;;;;;;13.65;6.50;;;;;;;;;;7391448;19;20015;-68
2023/01/01 07:21:42;;;;;;;11.70;6.13;;;;;;;;;;7391531;19;20001;-67
2023/01/01 07:24:11;;;;;;;11.20;5.80;;;;;;;;;;7393236;19;20022;-68
2023/01/01 07:26:36;;;;;;;10.55;5.75;;;;;;;;;;7391281;19;20469;-68
2023/01/01 07:29:01;;;;;;;10.68;5.53;;;;;;;;;;7392729;19;19999;-68
2023/01/01 07:31:27;;;;;;;9.93;5.75;;;;;;;;;;7393601;19;20002;-68
2023/01/01 07:33:52;;;;;;;10.95;5.75;;;;;;;;;;7396478;19;19995;-68
2023/01/01 07:36:17;;;;;;;8.70;4.78;;;;;;;;;;7394440;19;19991;-69
2023/01/01 07:38:43;;;;;;;10.25;4.35;;;;;;;;;;7393894;19;19990;-69
2023/01/01 07:41:16;;;;;;;8.45;3.53;;;;;;;;;;7425883;19;20377;-68
2023/01/01 07:43:42;;;;;;;7.07;3.30;;;;;;;;;;7426645;19;20356;-69
2023/01/01 07:46:11;;;;;;;4.60;2.67;;;;;;;;;;7424416;19;19999;-69
2023/01/01 07:48:36;;;;;;;8.60;3.03;;;;;;;;;;7427514;19;20476;-68
2023/01/01 07:51:01;;;;;;;7.22;2.67;;;;;;;;;;7427656;19;20053;-69
2023/01/01 07:53:27;;;;;;;12.40;3.22;;;;;;;;;;7424088;19;20070;-69
2023/01/01 07:55:52;;;;;;;6.40;2.60;;;;;;;;;;7426026;19;20109;-69
2023/01/01 07:58:17;;;;;;;7.43;3.03;;;;;;;;;;7425902;19;20018;-69
2023/01/01 08:00:46;;;;;;;7.72;2.60;;;;;;;;;;7421755;19;20014;-69
2023/01/01 08:03:11;;;;;;;7.63;2.40;;;;;;;;;;7421350;19;20002;-69
2023/01/01 08:05:37;;;;;;;5.25;2.03;;;;;;;;;;7424758;19;20050;-68
2023/01/01 08:08:02;;;;;;;6.85;2.40;;;;;;;;;;7424035;19;20002;-67
2023/01/01 08:10:28;;;;;;;5.97;2.35;;;;;;;;;;7425998;19;19991;-67
2023/01/01 08:12:59;;;;;;;6.55;2.40;;;;;;;;;;7421592;19;20507;-68
2023/01/01 08:15:24;;;;;;;;;;;;;;;;;;7425839;19;19999;-68
2023/01/01 08:17:58;;;;;;;6.67;2.03;;;;;;;;;;7425324;19;19931;-67
2023/01/01 08:20:23;;;;;;;5.93;2.65;;;;;;;;;;7423090;19;20319;-67
2023/01/01 08:22:49;;;;;;;5.28;2.10;;;;;;;;;;7423325;19;20460;-67
2023/01/01 08:25:14;;;;;;;8.15;2.83;;;;;;;;;;7424832;19;20021;-67
2023/01/01 08:27:39;;;;;;;9.05;2.60;;;;;;;;;;7425269;19;19998;-67
2023/01/01 08:30:05;;;;;;;6.25;2.30;;;;;;;;;;7428379;19;20001;-68
2023/01/01 08:32:31;;;;;;;5.78;2.17;;;;;;;;;;7423914;19;20066;-68
2023/01/01 08:34:56;;;;;;;5.35;2.20;;;;;;;;;;7424208;19;20003;-68
2023/01/01 08:37:22;;;;;;;5.65;2.65;;;;;;;;;;7424616;19;20001;-68
2023/01/01 08:39:49;;;;;;;10.07;2.40;;;;;;;;;;7421470;19;20482;-68
2023/01/01 08:42:14;;;;;;;5.53;1.90;;;;;;;;;;7422572;19;20538;-68
2023/01/01 08:44:39;;;;;;;4.72;2.35;;;;;;;;;;7420298;19;19999;-68
2023/01/01 08:47:05;;;;;;;4.10;1.98;;;;;;;;;;7424188;19;20013;-68
2023/01/01 08:49:30;;;;;;;8.13;2.00;;;;;;;;;;7421791;19;19995;-68
2023/01/01 08:51:55;;;;;;;5.72;2.13;;;;;;;;;;7403814;19;19999;-68
2023/01/01 08:54:20;;;;;;;7.00;2.15;;;;;;;;;;7391679;19;20095;-70
2023/01/01 08:56:46;;;;;;;4.55;2.10;;;;;;;;;;7395575;19;19991;-68
2023/01/01 08:59:11;;;;;;;8.57;2.20;;;;;;;;;;7394746;19;20082;-68
2023/01/01 09:01:36;;;;;;;3.65;1.88;;;;;;;;;;7395536;19;19999;-68
2023/01/01 09:04:02;;;;;;;8.00;2.25;;;;;;;;;;7390143;19;20014;-68
2023/01/01 09:06:27;;;;;;;3.55;1.83;;;;;;;;;;7395514;19;20026;-68
2023/01/01 09:08:52;;;;;;;4.70;2.10;;;;;;;;;;7394925;19;20364;-68
2023/01/01 09:11:23;;;;;;;9.38;2.20;;;;;;;;;;7395012;19;20000;-68
2023/01/01 09:13:49;;;;;;;7.97;2.08;;;;;;;;;;7391713;19;20002;-70
2023/01/01 09:16:14;;;;;;;6.60;3.25;;;;;;;;;;7394764;19;19994;-68
2023/01/01 09:18:39;;;;;;;8.85;2.33;;;;;;;;;;7393344;19;20007;-68
2023/01/01 09:21:05;;;;;;;6.60;2.50;;;;;;;;;;7391071;19;20023;-68
2023/01/01 09:23:30;;;;;;;12.52;2.67;;;;;;;;;;7393262;19;20021;-69
2023/01/01 09:26:01;;;;;;;7.82;2.50;;;;;;;;;;7392507;19;20003;-68
2023/01/01 09:28:28;;;;;;;;;;;;;;;;;;7394968;19;20356;-68
2023/01/01 09:30:53;;;;;;;7.15;2.50;;;;;;;;;;7393426;19;19922;-68
2023/01/01 09:33:19;;;;;;;4.88;2.28;;;;;;;;;;7391737;19;20019;-69
2023/01/01 09:35:44;;;;;;;6.65;2.30;;;;;;;;;;7392557;19;19999;-68
2023/01/01 09:38:09;;;;;;;7.22;2.00;;;;;;;;;;7393959;19;20473;-68
2023/01/01 09:40:52;;;;;;;3.90;2.25;;;;;;;;;;7391976;19;19999;-68
2023/01/01 09:43:42;;;;;;;8.10;2.20;;;;;;;;;;7391668;19;20040;-68
2023/01/01 09:46:09;;;;;;;7.20;2.00;;;;;;;;;;7391873;19;20021;-68
2023/01/01 09:48:38;;;;;;;5.35;2.28;;;;;;;;;;7391909;19;20001;-68
2023/01/01 09:51:06;;;;;;;10.90;2.13;;;;;;;;;;7393752;19;20003;-69
2023/01/01 09:53:31;;;;;;;4.90;2.35;;;;;;;;;;7390360;19;20468;-68
2023/01/01 09:55:58;;;;;;;7.22;2.20;;;;;;;;;;7392393;19;20013;-68
2023/01/01 09:58:35;;;;;;;6.90;2.30;;;;;;;;;;7393759;19;20006;-68
2023/01/01 10:01:29;;;;;;;5.22;2.20;;;;;;;;;;7391488;19;20012;-69
2023/01/01 10:04:25;;;;;;;5.30;1.88;;;;;;;;;;7387733;19;20062;-68
2023/01/01 10:07:03;;;;;;;6.80;2.10;;;;;;;;;;7391569;19;20355;-68
2023/01/01 10:09:46;;;;;;;6.60;1.92;;;;;;;;;;7392924;19;20402;-68
2023/01/01 10:12:24;;;;;;;6.60;2.40;;;;;;;;;;7391194;19;19995;-68
2023/01/01 10:15:04;;;;;;;10.77;2.15;;;;;;;;;;7389795;19;20492;-68
2023/01/01 10:17:38;;;;;;;7.45;2.50;;;;;;;;;;7390470;19;20023;-68
2023/01/01 10:20:20;;;;;;;7.57;2.50;;;;;;;;;;7391780;19;20001;-69
2023/01/01 10:22:49;;;;;;;6.00;2.33;;;;;;;;;;7390198;19;20505;-69
2023/01/01 10:25:19;;;;;;;9.55;2.40;;;;;;;;;;7391017;19;20460;-68
2023/01/01 10:27:57;;;;;;;6.93;2.55;;;;;;;;;;7390825;19;20286;-68
2023/01/01 10:30:23;;;;;;;10.43;2.22;;;;;;;;;;7392095;19;20106;-68
2023/01/01 10:32:51;;;;;;;11.98;2.42;;;;;;;;;;7390077;19;19999;-68
2023/01/01 10:35:20;;;;;;;6.75;2.72;;;;;;;;;;7391887;19;19999;-68
2023/01/01 10:37:45;;;;;;;6.45;2.10;;;;;;;;;;7391657;19;20076;-68
2023/01/01 10:40:21;;;;;;;4.78;1.90;;;;;;;;;;7389457;19;20472;-69
2023/01/01 10:42:53;;;;;;;8.23;2.17;;;;;;;;;;7390160;19;19999;-68
2023/01/01 10:45:43;;;;;;;5.25;2.10;;;;;;;;;;7391764;19;20022;-67
2023/01/01 10:48:14;;;;;;;5.80;2.40;;;;;;;;;;7392001;19;19998;-67
2023/01/01 10:50:52;;;;;;;7.25;2.20;;;;;;;;;;7391439;19;20022;-67
2023/01/01 10:53:40;;;;;;;8.60;2.22;;;;;;;;;;7388745;19;20007;-68
2023/01/01 10:56:14;;;;;;;9.27;2.70;;;;;;;;;;7390846;19;20399;-68
2023/01/01 10:58:39;;;;;;;6.05;2.00;;;;;;;;;;7391310;19;19998;-68
2023/01/01 11:01:07;;;;;;;6.75;2.20;;;;;;;;;;7393295;19;19995;-68
2023/01/01 11:03:33;;;;;;;4.82;2.28;;;;;;;;;;7388899;19;20007;-68
2023/01/01 11:06:16;;;;;;;8.15;2.65;;;;;;;;;;7389498;19;20003;-69
2023/01/01 11:08:47;;;;;;;7.50;2.53;;;;;;;;;;7389377;19;20352;-68
2023/01/01 11:11:24;;;;;;;9.30;2.90;;;;;;;;;;7389575;19;20006;-69
2023/01/01 11:13:52;;;;;;;9.20;3.65;;;;;;;;;;7385999;19;20023;-68
2023/01/01 11:16:18;;;;;;;5.82;2.33;;;;;;;;;;7389409;19;19998;-68
2023/01/01 11:18:43;;;;;;;11.52;2.58;;;;;;;;;;7388583;19;19995;-68
2023/01/01 11:21:08;;;;;;;5.75;2.35;;;;;;;;;;7387814;19;20003;-68
2023/01/01 11:23:35;;;;;;;5.55;2.35;;;;;;;;;;7386672;19;20515;-68
2023/01/01 11:26:03;;;;;;;5.90;2.10;;;;;;;;;;7390149;19;20425;-68
2023/01/01 11:28:30;;;;;;;4.72;2.30;;;;;;;;;;7390321;19;20074;-68
2023/01/01 11:31:02;;;;;;;4.95;2.40;;;;;;;;;;7390360;19;20007;-68
2023/01/01 11:33:31;;;;;;;5.43;2.30;;;;;;;;;;7390340;19;20516;-68
2023/01/01 11:35:57;;;;;;;8.30;3.17;;;;;;;;;;7388887;19;20027;-68
2023/01/01 11:38:23;;;;;;;7.25;2.38;;;;;;;;;;7390213;19;20007;-68
2023/01/01 11:40:55;;;;;;;5.93;2.45;;;;;;;;;;7386795;19;20424;-68
2023/01/01 11:43:27;;;;;;;8.18;2.25;;;;;;;;;;7388475;19;20006;-68
2023/01/01 11:45:54;;;;;;;6.03;2.30;;;;;;;;;;7389948;19;20095;-68
2023/01/01 11:48:28;;;;;;;9.00;2.80;;;;;;;;;;7393498;19;19994;-68
2023/01/01 11:50:56;;;;;;;7.00;2.55;;;;;;;;;;7389620;19;19995;-68
2023/01/01 11:53:21;;;;;;;8.48;2.50;;;;;;;;;;7388170;19;20010;-68
2023/01/01 11:55:49;;;;;;;6.83;2.47;;;;;;;;;;7389566;19;20428;-68
2023/01/01 11:58:28;;;;;;;7.07;2.40;;;;;;;;;;7389465;19;20240;-68
2023/01/01 12:00:58;;;;;;;5.88;2.13;;;;;;;;;;7388350;19;20023;-69
2023/01/01 12:03:52;;;;;;;4.00;2.05;;;;;;;;;;7387577;19;20003;-68
2023/01/01 12:06:42;;;;;;;9.38;2.67;;;;;;;;;;7388739;19;20018;-68
2023/01/01 12:09:21;;;;;;;5.88;2.22;;;;;;;;;;7389143;19;20007;-67
2023/01/01 12:12:12;;;;;;;9.48;2.55;;;;;;;;;;7389156;19;20009;-67
2023/01/01 12:14:46;;;;;;;4.25;2.10;;;;;;;;;;7390175;19;20329;-68
2023/01/01 12:17:37;;;;;;;7.22;2.28;;;;;;;;;;7389165;19;19995;-69
2023/01/01 12:20:24;;;;;;;11.30;2.38;;;;;;;;;;7386730;19;20022;-68
2023/01/01 12:22:49;;;;;;;7.25;2.20;;;;;;;;;;7387103;19;20120;-68
2023/01/01 12:25:18;;;;;;;7.25;2.70;;;;;;;;;;7389039;19;20559;-68
2023/01/01 12:28:02;;;;;;;6.07;2.50;;;;;;;;;;7395253;19;20027;-68
2023/01/01 12:30:48;;;;;;;8.77;2.35;;;;;;;;;;7396290;19;20002;-67
2023/01/01 12:33:48;;;;;;;6.15;2.35;;;;;;;;;;7393419;19;20480;-69
2023/01/01 12:36:41;;;;;;;5.88;2.42;;;;;;;;;;7394607;19;20471;-69
2023/01/01 12:39:22;;;;;;;6.25;2.50;;;;;;;;;;7394104;19;20003;-68
2023/01/01 12:42:05;;;;;;;5.75;2.17;;;;;;;;;;7395943;19;20003;-69
2023/01/01 12:44:57;;;;;;;8.57;2.30;;;;;;;;;;7390120;19;20362;-67
2023/01/01 12:47:37;;;;;;;9.48;2.33;;;;;;;;;;7395283;19;20005;-69
2023/01/01 12:50:29;;;;;;;7.22;2.70;;;;;;;;;;7394095;19;20086;-68
2023/01/01 12:53:04;;;;;;;8.50;2.20;;;;;;;;;;7390489;19;20006;-68
2023/01/01 12:56:02;;;;;;;7.32;2.45;;;;;;;;;;7394082;19;20027;-68
2023/01/01 12:58:33;;;;;;;4.13;2.05;;;;;;;;;;7394882;19;20044;-68
2023/01/01 13:01:07;;;;;;;6.30;2.00;;;;;;;;;;7392477;19;19999;-68
2023/01/01 13:03:40;;;;;;;8.48;2.47;;;;;;;;;;7392050;19;20009;-68
2023/01/01 13:06:08;;;;;;;5.85;2.50;;;;;;;;;;7394312;19;20016;-68
2023/01/01 13:08:35;;;;;;;8.90;2.38;;;;;;;;;;7394650;19;20065;-68
2023/01/01 13:11:02;;;;;;;6.68;2.40;;;;;;;;;;7394599;19;20338;-68
2023/01/01 13:13:27;;;;;;;8.43;2.40;;;;;;;;;;7391666;19;20018;-67
2023/01/01 13:15:54;;;;;;;6.93;2.80;;;;;;;;;;7394431;19;19995;-69
2023/01/01 13:18:26;;;;;;;6.18;2.70;;;;;;;;;;7393304;19;20007;-67
2023/01/01 13:20:51;;;;;;;10.05;2.30;;;;;;;;;;7392359;19;20012;-69
2023/01/01 13:23:49;;;;;;;6.13;2.50;;;;;;;;;;7392002;19;20003;-68
2023/01/01 13:26:17;;;;;;;9.68;2.60;;;;;;;;;;7392607;19;20239;-68
2023/01/01 13:29:01;;;;;;;6.70;2.25;;;;;;;;;;7394192;19;20011;-68
2023/01/01 13:31:39;;;;;;;8.10;2.10;;;;;;;;;;7395606;19;20341;-68
2023/01/01 13:34:29;;;;;;;8.75;2.55;;;;;;;;;;7389075;19;20011;-68
2023/01/01 13:37:09;;;;;;;5.70;2.22;;;;;;;;;;7392062;19;20464;-68
2023/01/01 13:39:53;;;;;;;7.63;2.38;;;;;;;;;;7393254;19;20002;-68
2023/01/01 13:42:51;;;;;;;8.95;2.40;;;;;;;;;;7393907;19;20449;-68
2023/01/01 13:45:28;;;;;;;6.97;2.47;;;;;;;;;;7393964;19;19999;-68
2023/01/01 13:48:18;;;;;;;8.93;2.83;;;;;;;;;;7397416;19;20003;-68
2023/01/01 13:51:01;;;;;;;10.18;2.60;;;;;;;;;;7393402;19;19998;-67
2023/01/01 13:54:15;;;;;;;10.13;3.20;;;;;;;;;;7388836;19;20010;-70
2023/01/01 13:56:48;;;;;;;8.77;2.35;;;;;;;;;;7393666;19;20003;-69
2023/01/01 13:59:34;;;;;;;7.55;2.22;;;;;;;;;;7393223;19;19994;-69
2023/01/01 14:02:13;;;;;;;5.65;2.60;;;;;;;;;;7394740;19;20032;-70
2023/01/01 14:04:45;;;;;;;7.45;2.70;;;;;;;;;;7391602;19;20002;-69
2023/01/01 14:07:41;;;;;;;7.90;2.38;;;;;;;;;;7397122;19;19994;-70
2023/01/01 14:10:28;;;;;;;9.20;2.15;;;;;;;;;;7393255;19;20474;-70
2023/01/01 14:13:07;;;;;;;8.73;2.42;;;;;;;;;;7392682;19;20058;-70
2023/01/01 14:15:36;;;;;;;8.05;2.70;;;;;;;;;;7394081;19;20468;-69
2023/01/01 14:18:04;;;;;;;7.80;2.50;;;;;;;;;;7393974;19;19987;-70
2023/01/01 14:20:44;;;;;;;4.78;2.20;;;;;;;;;;7391256;19;19995;-70
2023/01/01 14:23:32;;;;;;;6.80;2.20;;;;;;;;;;7392287;19;20033;-70
2023/01/01 14:26:00;;;;;;;6.75;2.30;;;;;;;;;;7393894;19;20024;-70
2023/01/01 14:28:32;;;;;;;6.68;2.30;;;;;;;;;;7393592;19;20023;-69
2023/01/01 14:31:00;;;;;;;7.80;2.35;;;;;;;;;;7393712;19;20019;-70
2023/01/01 14:33:31;;;;;;;8.05;2.53;;;;;;;;;;7391467;19;19998;-70
2023/01/01 14:36:00;;;;;;;;;;;;;;;;;;7392397;19;20448;-70
2023/01/01 14:38:28;;;;;;;10.88;2.50;;;;;;;;;;7393890;19;19914;-70
2023/01/01 14:41:16;;;;;;;6.55;2.53;;;;;;;;;;7391953;19;20423;-69
2023/01/01 14:43:44;;;;;;;7.07;2.65;;;;;;;;;;7389326;19;20012;-70
2023/01/01 14:46:19;;;;;;;8.32;2.47;;;;;;;;;;7392366;19;19999;-69
2023/01/01 14:48:50;;;;;;;9.13;2.67;;;;;;;;;;7390517;19;19999;-70
2023/01/01 14:51:20;;;;;;;8.57;2.65;;;;;;;;;;7392689;19;19999;-68
2023/01/01 14:53:47;;;;;;;5.32;2.40;;;;;;;;;;7389231;19;19995;-68
2023/01/01 14:56:23;;;;;;;6.88;2.67;;;;;;;;;;7393907;19;20002;-71
2023/01/01 14:58:48;;;;;;;9.82;2.63;;;;;;;;;;7392763;19;20002;-69
2023/01/01 15:01:21;;;;;;;8.32;2.55;;;;;;;;;;7391356;19;20342;-69
2023/01/01 15:04:16;;;;;;;6.72;2.65;;;;;;;;;;7393695;19;19999;-69